createdAt,value
2023-06-19T00:01:36.126Z,23.10
2023-06-19T00:16:41.414Z,23.60
2023-06-19T00:31:46.147Z,23.40
2023-06-19T00:46:53.599Z,23.40
2023-06-19T01:01:58.789Z,23.10
2023-06-19T01:17:03.646Z,23.30
2023-06-19T01:32:15.609Z,23.50
2023-06-19T01:47:22.743Z,22.80
2023-06-19T02:02:27.327Z,23.40
2023-06-19T02:17:31.834Z,23.40
2023-06-19T02:32:36.366Z,23.20
2023-06-19T02:47:41.062Z,22.80
2023-06-19T03:02:45.961Z,22.60
2023-06-19T03:17:50.721Z,22.20
2023-06-19T03:32:56.054Z,22.10
2023-06-19T03:48:18.668Z,22.70
2023-06-19T04:03:23.995Z,22.20
2023-06-19T04:18:29.436Z,22.40
2023-06-19T04:33:35.619Z,22.70
2023-06-19T04:48:40.793Z,23.00
2023-06-19T05:03:48.009Z,22.10
2023-06-19T05:18:52.842Z,22.80
2023-06-19T05:33:57.277Z,23.00
2023-06-19T05:49:01.704Z,22.80
2023-06-19T06:04:06.476Z,23.30
2023-06-19T06:19:10.983Z,23.40
2023-06-19T06:34:15.738Z,23.70
2023-06-19T06:49:21.272Z,23.80
2023-06-19T07:04:25.925Z,23.50
2023-06-19T07:19:30.728Z,24.00
2023-06-19T07:34:35.381Z,24.00
2023-06-19T07:49:40.156Z,24.00
2023-06-19T08:04:44.715Z,24.20
2023-06-19T08:19:49.417Z,24.30
2023-06-19T08:34:53.874Z,24.40
2023-06-19T08:50:00.796Z,24.40
2023-06-19T09:05:14.851Z,24.40
2023-06-19T09:20:29.522Z,24.30
2023-06-19T09:35:34.004Z,24.60
2023-06-19T09:50:41.500Z,24.60
2023-06-19T10:05:46.040Z,24.80
2023-06-19T10:20:50.464Z,24.90
2023-06-19T10:35:55.761Z,25.10
2023-06-19T10:51:01.393Z,25.30
2023-06-19T11:06:06.058Z,25.50
2023-06-19T11:21:10.526Z,25.80
2023-06-19T11:36:15.022Z,26.10
2023-06-19T11:51:19.758Z,26.20
2023-06-19T12:06:24.435Z,25.70
2023-06-19T12:21:36.436Z,25.90
2023-06-19T12:36:43.515Z,25.80
2023-06-19T12:51:50.123Z,25.80
2023-06-19T13:06:54.650Z,25.60
2023-06-19T13:21:59.137Z,25.60
2023-06-19T13:37:03.884Z,25.20
2023-06-19T13:52:09.157Z,25.30
2023-06-19T14:07:13.689Z,25.50
2023-06-19T14:22:18.284Z,25.60
2023-06-19T14:37:22.964Z,24.90
2023-06-19T14:52:29.545Z,25.00
2023-06-19T15:07:34.058Z,25.10
2023-06-19T15:22:38.648Z,25.20
2023-06-19T15:37:43.378Z,25.40
2023-06-19T15:52:48.305Z,25.60
2023-06-19T16:07:52.736Z,25.90
2023-06-19T16:22:57.227Z,25.90
2023-06-19T16:38:01.718Z,26.00
2023-06-19T16:53:07.111Z,26.00
2023-06-19T17:08:11.688Z,26.00
2023-06-19T17:23:16.267Z,26.40
2023-06-19T17:38:21.390Z,26.40
2023-06-19T17:53:25.862Z,26.40
2023-06-19T18:08:30.331Z,26.30
2023-06-19T18:23:34.853Z,26.00
2023-06-19T18:38:39.342Z,26.10
2023-06-19T18:53:43.845Z,26.00
2023-06-19T19:08:48.322Z,25.90
2023-06-19T19:23:52.979Z,25.80
2023-06-19T19:38:57.638Z,25.60
2023-06-19T19:54:02.216Z,25.60
2023-06-19T20:09:07.230Z,25.50
2023-06-19T20:24:11.862Z,25.40
2023-06-19T20:39:16.789Z,25.40
2023-06-19T20:54:21.286Z,25.20
2023-06-19T21:09:27.896Z,25.30
2023-06-19T21:24:32.441Z,25.20
2023-06-19T21:39:36.896Z,24.80
2023-06-19T21:54:41.307Z,24.80
2023-06-19T22:09:45.885Z,24.70
2023-06-19T22:24:51.950Z,24.50
2023-06-19T22:39:56.524Z,24.60
2023-06-19T22:55:01.057Z,24.60
2023-06-19T23:10:08.911Z,24.50
2023-06-19T23:25:13.467Z,24.60
2023-06-19T23:40:19.376Z,24.30
2023-06-19T23:55:24.539Z,24.30
